Latest Conditions
At L.F.Wade Int. Airport
Recorded at 2:55 am
Partly Cloudy
Temp.: 
22°C/71°F
Humidity: 
72%
Wind: 
SW 23KT
or 26mph
UV Index: 
0
Island Observations
 
Observations
Saturday, December 16, 2017

Observations are in local time and taken at least once an hour, or upon the start and end of specified events such as showers and thunderstorms.

Time Sky / Weather Wind Speed/Gusts Temp. R.H. Pressure
     knots (mph)  °C (°F)  %  mb / "Hg
 02:55 Partly Cloudy  SW 23/0 (26/0) 22(71) 72 1015 / 29.97
 01:55 Partly Cloudy  SW 24/0 (28/0) 22(71) 70 1015 / 29.97
 00:55 Mostly Cloudy  SW 21/0 (24/0) 22(71) 68 1016 / 30.00
 23:55 Mostly Cloudy  SW 19/0 (22/0) 22(71) 66 1017 / 30.03
 22:55 Mostly Cloudy Showers SW 18/0 (21/0) 22(71) 72 1017 / 30.03
 22:34 Mostly Cloudy Showers SW 17/0 (20/0) 22(71) 74 1018 / 30.05
 21:55 Mostly Cloudy Showers SW 18/0 (21/0) 22(71) 74 1018 / 30.06
 20:55 Mostly Cloudy Showers SW 13/0 (15/0) 22(71) 73 1018 / 30.06
 19:55 Mostly Cloudy  SW 16/0 (18/0) 22(71) 71 1018 / 30.06
 19:25 Mostly Cloudy Showers WSW 15/0 (17/0) 22(71) 69 1019 / 30.08
 19:10 Mostly Cloudy Showers WSW 13/0 (15/0) 22(71) 69 1019 / 30.08
 18:55 Mostly Cloudy  SW 15/0 (17/0) 22(71) 69 1018 / 30.06
 17:55 Mostly Cloudy  SW 13/0 (15/0) 22(71) 72 1018 / 30.06
 16:55 Partly Cloudy  SW 11/0 (13/0) 22(72) 70 1018 / 30.06
 15:55 Partly Cloudy  WSW 14/0 (16/0) 23(73) 67 1018 / 30.06
 14:55 Partly Cloudy  WSW 13/0 (15/0) 23(74) 68 1018 / 30.06
 13:55 Partly Cloudy  WSW 13/0 (15/0) 23(74) 67 1018 / 30.06
 12:55 Mostly Cloudy  WSW 12/0 (14/0) 23(73) 70 1018 / 30.06
 11:55 Mostly Cloudy  W 12/0 (14/0) 23(74) 69 1019 / 30.09
 10:55 Mostly Cloudy  WSW 11/0 (13/0) 23(73) 71 1020 / 30.12
 09:55 Mostly Cloudy  W 12/0 (14/0) 23(73) 69 1020 / 30.12
 08:55 Mostly Cloudy  WSW 10/0 (12/0) 22(72) 75 1020 / 30.11
 07:55 Mostly Cloudy  WSW 9/0 (10/0) 21(71) 78 1019 / 30.09
 06:55 Mostly Cloudy  WSW 9/0 (10/0) 21(70) 79 1018 / 30.06
 05:55 Overcast  WSW 7/0 (8/0) 21(70) 80 1018 / 30.06
 04:55 Mostly Cloudy  WSW 9/0 (10/0) 21(70) 81 1017 / 30.03
 03:55 Mostly Cloudy  WSW 8/0 (9/0) 21(70) 80 1017 / 30.03
 02:55 Mostly Cloudy  WSW 12/0 (14/0) 21(70) 78 1018 / 30.06
 01:55 Mostly Cloudy Showers WSW 11/0 (13/0) 21(70) 76 1017 / 30.03
 00:55 Mostly Cloudy Showers WSW 13/0 (15/0) 21(71) 77 1017 / 30.03
 23:55 Mostly Cloudy Showers WSW 14/0 (16/0) 21(70) 79 1017 / 30.03
 23:25 Mostly Cloudy Showers W 13/0 (15/0) 22(71) 72 1018 / 30.05
 22:55 Mostly Cloudy Showers WSW 14/0 (16/0) 22(71) 72 1017 / 30.03
 21:55 Mostly Cloudy  WSW 13/0 (15/0) 22(71) 72 1017 / 30.03
 20:55 Mostly Cloudy  SW 12/0 (14/0) 20(68) 82 1017 / 30.03
 20:23 Mostly Cloudy Showers WSW 13/0 (15/0) 20(68) 76 1017 / 30.03
 20:11 Mostly Cloudy Showers SW 17/0 (20/0) 20(68) 76 1017 / 30.03
 19:55 Mostly Cloudy Showers SW 15/0 (17/0) 20(68) 76 1017 / 30.03
 19:23 Mostly Cloudy Showers WSW 15/0 (17/0) 20(68) 81 1017 / 30.03
 19:00 Overcast Showers W 19/0 (22/0) 20(68) 82 1017 / 30.02
 18:55 Mostly Cloudy Showers SW 16/0 (18/0) 20(68) 81 1016 / 30.00
 17:55 Mostly Cloudy  SW 18/0 (21/0) 21(70) 66 1016 / 30.00
 16:55 Mostly Cloudy  SW 17/0 (20/0) 21(70) 66 1015 / 29.97
 15:55 Mostly Cloudy  SW 18/0 (21/0) 21(70) 65 1015 / 29.97
 14:55 Mostly Cloudy Showers SW 20/0 (23/0) 21(70) 67 1015 / 29.97
 13:55 Overcast Showers SW 16/0 (18/0) 21(71) 63 1015 / 29.97
 12:55 Mostly Cloudy  WSW 17/0 (20/0) 22(71) 54 1016 / 30.00
 11:55 Mostly Cloudy  WSW 14/0 (16/0) 21(71) 54 1016 / 30.00
 10:55 Mostly Cloudy  SW 15/0 (17/0) 20(69) 59 1017 / 30.03
 09:55 Overcast  WSW 14/0 (16/0) 20(68) 57 1017 / 30.03
 08:55 Mostly Cloudy  WSW 15/0 (17/0) 20(67) 53 1017 / 30.03
 07:55 Mostly Cloudy  SW 12/0 (14/0) 19(67) 54 1016 / 30.00
 06:55 Mostly Cloudy  W 15/0 (17/0) 19(66) 56 1016 / 30.00
 05:55 Mostly Cloudy  WSW 13/0 (15/0) 19(66) 58 1015 / 29.98
 04:55 Mostly Cloudy  W 16/0 (18/0) 19(66) 58 1015 / 29.97
 03:55 Mostly Cloudy  WSW 14/0 (16/0) 18(65) 53 1015 / 29.96
 02:55 Mostly Cloudy  W 14/0 (16/0) 18(65) 54 1014 / 29.95
 01:55 Overcast  WNW 14/0 (16/0) 18(65) 53 1014 / 29.94
 00:55 Overcast  W 16/0 (18/0) 18(65) 52 1014 / 29.94
 23:55 Mostly Cloudy  WNW 17/0 (20/0) 18(65) 58 1014 / 29.94
 22:55 Mostly Cloudy  W 17/0 (20/0) 18(65) 56 1014 / 29.94
 21:55 Mostly Cloudy  W 19/0 (22/0) 18(65) 57 1014 / 29.93
 20:55 Mostly Cloudy  W 21/0 (24/0) 18(65) 59 1013 / 29.92
 19:55 Mostly Cloudy  W 26/0 (30/0) 19(66) 57 1013 / 29.90
 18:55 Mostly Cloudy Showers WNW 24/0 (28/0) 19(66) 60 1012 / 29.87
 17:55 Mostly Cloudy Showers WNW 25/0 (29/0) 19(67) 62 1010 / 29.83
 17:24 Mostly Cloudy Showers W 21/0 (24/0) 20(67) 64 1010 / 29.82
 16:55 Mostly Cloudy Showers W 24/0 (28/0) 20(67) 64 1009 / 29.80
 16:28 Mostly Cloudy Showers W 25/0 (29/0) 21(69) 63 1009 / 29.79
 16:05 Mostly Cloudy Showers W 24/0 (28/0) 21(69) 63 1008 / 29.78
 15:55 Mostly Cloudy Showers W 25/0 (29/0) 21(69) 63 1008 / 29.76
 15:03 Mostly Cloudy Showers W 25/0 (29/0) 20(69) 69 1007 / 29.73
 14:55 Mostly Cloudy Showers W 25/0 (29/0) 20(69) 69 1006 / 29.70
 13:55 Partly Cloudy  W 25/35 (29/40) 22(72) 54 1006 / 29.70
 12:55 Partly Cloudy  W 26/0 (30/0) 22(71) 59 1006 / 29.70
 11:55 Mostly Cloudy Showers W 24/0 (28/0) 21(70) 63 1006 / 29.70
 11:30 Mostly Cloudy Showers W 27/0 (31/0) 21(70) 70 1006 / 29.72
 10:55 Mostly Cloudy  W 24/0 (28/0) 21(70) 70 1006 / 29.70
 10:11 Mostly Cloudy Showers WSW 27/46 (31/53) 22(72) 83 1006 / 29.70
 10:03 Mostly Cloudy Showers WSW 25/46 (29/53) 22(72) 66 1006 / 29.70
 09:55 Mostly Cloudy Showers WSW 25/0 (29/0) 22(72) 66 1006 / 29.70
 08:55 Mostly Cloudy Showers WSW 24/0 (28/0) 22(71) 67 1005 / 29.68
 07:55 Mostly Cloudy  WSW 26/0 (30/0) 22(72) 66 1004 / 29.66
 06:55 Mostly Cloudy  WSW 24/0 (28/0) 22(71) 69 1004 / 29.64
 05:55 Mostly Cloudy  WSW 27/0 (31/0) 21(70) 69 1004 / 29.64
 05:11 Mostly Cloudy Showers WSW 18/0 (21/0) 20(67) 88 1004 / 29.65
 04:55 Overcast Showers SW 10/0 (12/0) 20(67) 88 1004 / 29.65
 04:34 Overcast Showers SW 12/0 (14/0) 19(67) 91 1004 / 29.65
 03:55 Overcast Showers WSW 22/0 (25/0) 19(67) 91 1004 / 29.65
 03:21 Overcast Showers WSW 22/33 (25/38) 22(72) 75 1004 / 29.66
 03:04 Overcast Showers SSW 19/0 (22/0) 22(72) 75 1004 / 29.66
 02:55 Overcast Showers SSW 15/0 (17/0) 22(72) 75 1004 / 29.66
 01:55 Mostly Cloudy  SSW 14/0 (16/0) 22(71) 77 1005 / 29.69
 00:55 Mostly Cloudy Showers S 15/0 (17/0) 21(71) 79 1006 / 29.72
 00:10 Mostly Cloudy  S 13/0 (15/0) 21(70) 82 1007 / 29.75
 23:55 Mostly Cloudy Showers S 10/0 (12/0) 21(70) 82 1007 / 29.75
 23:40 Mostly Cloudy Showers SSW 10/0 (12/0) 21(69) 77 1008 / 29.76
 23:32 Mostly Cloudy Showers S 12/0 (14/0) 21(69) 77 1008 / 29.78
 22:55 Mostly Cloudy  S 10/0 (12/0) 21(69) 77 1008 / 29.78
 21:55 Mostly Cloudy  S 10/0 (12/0) 21(69) 75 1010 / 29.82
Observations from our AWOS sites are available here (password and username are both 'guest').